createdAt,value
2023-01-07T00:01:16.798Z,81.79
2023-01-07T00:03:44.524Z,81.50
2023-01-07T00:06:20.429Z,81.25
2023-01-07T00:08:48.478Z,81.84
2023-01-07T00:11:21.055Z,81.82
2023-01-07T00:13:52.920Z,81.33
2023-01-07T00:16:22.641Z,81.59
2023-01-07T00:18:51.351Z,80.88
2023-01-07T00:21:20.047Z,81.60
2023-01-07T00:23:47.530Z,81.10
2023-01-07T00:26:16.717Z,81.14
2023-01-07T00:28:46.022Z,81.20
2023-01-07T00:31:19.642Z,81.79
2023-01-07T00:33:59.423Z,81.47
2023-01-07T00:36:31.368Z,81.68
2023-01-07T00:39:12.632Z,81.90
2023-01-07T00:41:39.838Z,81.54
2023-01-07T00:44:08.090Z,81.21
2023-01-07T00:46:35.063Z,82.05
2023-01-07T00:49:02.162Z,81.57
2023-01-07T00:51:29.033Z,81.46
2023-01-07T00:53:55.887Z,81.80
2023-01-07T00:56:22.692Z,81.51
2023-01-07T00:58:49.433Z,81.00
2023-01-07T01:01:16.270Z,81.29
2023-01-07T01:03:43.151Z,81.25
2023-01-07T01:06:14.523Z,81.12
2023-01-07T01:08:46.157Z,81.84
2023-01-07T01:11:15.800Z,82.05
2023-01-07T01:13:43.951Z,82.29
2023-01-07T01:16:13.947Z,82.09
2023-01-07T01:18:41.298Z,82.23
2023-01-07T01:21:10.731Z,81.96
2023-01-07T01:23:38.002Z,81.71
2023-01-07T01:26:10.382Z,82.34
2023-01-07T01:28:37.126Z,82.02
2023-01-07T01:31:04.647Z,82.39
2023-01-07T01:33:31.402Z,82.59
2023-01-07T01:35:58.197Z,82.42
2023-01-07T01:38:24.921Z,82.15
2023-01-07T01:40:52.647Z,82.75
2023-01-07T01:43:31.877Z,82.74
2023-01-07T01:46:12.030Z,82.66
2023-01-07T01:48:45.167Z,82.31
2023-01-07T01:51:14.957Z,82.10
2023-01-07T01:53:41.873Z,82.58
2023-01-07T01:56:16.534Z,82.33
2023-01-07T01:58:52.808Z,82.41
2023-01-07T02:01:19.800Z,82.24
2023-01-07T02:03:48.439Z,82.54
2023-01-07T02:06:24.189Z,81.90
2023-01-07T02:08:51.027Z,81.92
2023-01-07T02:11:37.956Z,81.99
2023-01-07T02:14:34.739Z,82.14
2023-01-07T02:17:16.818Z,81.59
2023-01-07T02:20:02.002Z,81.45
2023-01-07T02:22:40.347Z,81.81
2023-01-07T02:25:29.809Z,81.82
2023-01-07T02:28:05.505Z,81.97
2023-01-07T02:31:06.149Z,81.85
2023-01-07T02:34:06.481Z,81.98
2023-01-07T02:36:37.859Z,81.55
2023-01-07T02:39:27.510Z,81.43
2023-01-07T02:41:56.835Z,82.29
2023-01-07T02:44:42.152Z,82.04
2023-01-07T02:47:29.638Z,82.01
2023-01-07T02:49:56.401Z,82.06
2023-01-07T02:52:26.347Z,82.45
2023-01-07T02:55:19.235Z,82.22
2023-01-07T02:58:07.283Z,81.56
2023-01-07T03:00:58.228Z,81.75
2023-01-07T03:03:42.367Z,81.52
2023-01-07T03:06:27.524Z,81.14
2023-01-07T03:09:10.808Z,81.42
2023-01-07T03:12:11.249Z,81.35
2023-01-07T03:14:48.040Z,81.68
2023-01-07T03:17:20.757Z,81.58
2023-01-07T03:19:55.032Z,81.23
2023-01-07T03:22:25.251Z,81.23
2023-01-07T03:24:54.619Z,81.23
2023-01-07T03:27:24.033Z,81.38
2023-01-07T03:29:53.079Z,81.22
2023-01-07T03:32:31.610Z,81.46
2023-01-07T03:34:58.599Z,81.84
2023-01-07T03:37:27.861Z,81.68
2023-01-07T03:39:55.271Z,81.85
2023-01-07T03:42:40.225Z,82.08
2023-01-07T03:45:14.651Z,81.96
2023-01-07T03:47:45.685Z,81.83
2023-01-07T03:50:12.575Z,81.28
2023-01-07T03:52:39.444Z,81.77
2023-01-07T03:55:06.633Z,81.62
2023-01-07T03:57:33.745Z,82.30
2023-01-07T04:00:00.664Z,82.13
2023-01-07T04:02:28.041Z,82.23
2023-01-07T04:04:55.031Z,82.24
2023-01-07T04:07:21.784Z,82.45
2023-01-07T04:09:50.384Z,82.17
2023-01-07T04:12:17.974Z,82.49
2023-01-07T04:14:45.207Z,81.76
2023-01-07T04:17:12.269Z,82.03
2023-01-07T04:19:39.947Z,83.00
2023-01-07T04:22:09.395Z,82.64
2023-01-07T04:24:36.198Z,82.59
2023-01-07T04:27:03.362Z,82.75
2023-01-07T04:29:30.629Z,82.91
2023-01-07T04:31:57.930Z,81.89
2023-01-07T04:34:25.332Z,82.15
2023-01-07T04:36:52.176Z,82.65
2023-01-07T04:39:18.946Z,82.23
2023-01-07T04:41:45.752Z,82.11
2023-01-07T04:44:12.552Z,82.14
2023-01-07T04:46:39.331Z,82.11
2023-01-07T04:49:06.079Z,82.22
2023-01-07T04:51:32.843Z,82.54
2023-01-07T04:53:59.669Z,81.85
2023-01-07T04:56:26.448Z,82.21
2023-01-07T04:58:53.311Z,82.01
2023-01-07T05:01:20.196Z,82.30
2023-01-07T05:03:46.974Z,82.44
2023-01-07T05:06:14.031Z,82.54
2023-01-07T05:08:40.769Z,82.63
2023-01-07T05:11:07.495Z,81.97
2023-01-07T05:13:35.464Z,82.17
2023-01-07T05:16:03.139Z,82.41
2023-01-07T05:18:30.320Z,82.31
2023-01-07T05:20:57.112Z,82.46
2023-01-07T05:23:24.019Z,82.35
2023-01-07T05:25:50.818Z,82.16
2023-01-07T05:28:17.598Z,82.53
2023-01-07T05:30:44.507Z,82.02
2023-01-07T05:33:11.230Z,82.06
2023-01-07T05:35:38.035Z,82.19
2023-01-07T05:38:05.110Z,82.05
2023-01-07T05:40:31.823Z,82.26
2023-01-07T05:42:58.653Z,81.88
2023-01-07T05:45:25.392Z,82.58
2023-01-07T05:47:52.132Z,81.93
2023-01-07T05:50:18.867Z,82.38
2023-01-07T05:52:45.780Z,81.72
2023-01-07T05:55:12.560Z,81.87
2023-01-07T05:57:39.637Z,82.27
2023-01-07T06:00:07.083Z,81.61
2023-01-07T06:02:33.906Z,82.24
2023-01-07T06:05:00.693Z,82.43
2023-01-07T06:07:27.789Z,81.71
2023-01-07T06:09:54.559Z,82.18
2023-01-07T06:12:21.330Z,82.30
2023-01-07T06:14:48.041Z,81.59
2023-01-07T06:17:14.937Z,81.49
2023-01-07T06:19:41.635Z,81.91
2023-01-07T06:22:08.446Z,81.76
2023-01-07T06:24:35.291Z,82.13
2023-01-07T06:27:02.027Z,81.17
2023-01-07T06:29:28.770Z,81.42
2023-01-07T06:31:55.487Z,81.64
2023-01-07T06:34:22.271Z,81.64
2023-01-07T06:36:49.022Z,81.75
2023-01-07T06:39:15.786Z,81.71
2023-01-07T06:41:42.499Z,81.85
2023-01-07T06:44:09.202Z,81.29
2023-01-07T06:46:36.087Z,81.85
2023-01-07T06:49:03.482Z,81.80
2023-01-07T06:51:30.300Z,81.96
2023-01-07T06:53:57.120Z,81.68
2023-01-07T06:56:23.925Z,81.88
2023-01-07T06:58:50.675Z,81.99
2023-01-07T07:01:17.598Z,82.20
2023-01-07T07:03:44.445Z,81.89
2023-01-07T07:06:11.372Z,81.54
2023-01-07T07:08:38.266Z,81.90
2023-01-07T07:11:05.201Z,82.03
2023-01-07T07:13:34.209Z,81.69
2023-01-07T07:16:01.105Z,81.83
2023-01-07T07:18:27.973Z,82.11
2023-01-07T07:20:54.699Z,81.47
2023-01-07T07:23:21.493Z,81.67
2023-01-07T07:25:48.388Z,81.15
2023-01-07T07:28:15.146Z,81.09
2023-01-07T07:30:45.532Z,81.06
2023-01-07T07:33:15.131Z,81.03
2023-01-07T07:35:42.316Z,81.10
2023-01-07T07:38:09.189Z,81.26
2023-01-07T07:40:36.307Z,81.10
2023-01-07T07:43:11.593Z,81.42
2023-01-07T07:45:40.610Z,81.53
2023-01-07T07:48:09.428Z,81.07
2023-01-07T07:50:36.416Z,81.11
2023-01-07T07:53:03.378Z,80.44
2023-01-07T07:55:30.140Z,80.41
2023-01-07T07:57:58.412Z,80.77
2023-01-07T08:00:25.482Z,80.98
2023-01-07T08:02:52.524Z,80.58
2023-01-07T08:05:19.296Z,80.91
2023-01-07T08:07:46.013Z,81.08
2023-01-07T08:10:12.714Z,81.33
2023-01-07T08:12:40.025Z,80.64
2023-01-07T08:15:08.272Z,80.58
2023-01-07T08:17:36.420Z,80.34
2023-01-07T08:20:07.523Z,80.99
2023-01-07T08:22:35.058Z,80.61
2023-01-07T08:25:02.177Z,80.87
2023-01-07T08:27:30.387Z,80.64
2023-01-07T08:29:57.364Z,80.60
2023-01-07T08:32:24.517Z,79.28
2023-01-07T08:34:51.451Z,79.91
2023-01-07T08:37:19.543Z,79.70
2023-01-07T08:39:46.485Z,80.33
2023-01-07T08:42:13.201Z,79.48
2023-01-07T08:44:40.009Z,79.21
2023-01-07T08:47:06.831Z,79.79
2023-01-07T08:49:33.606Z,79.48
2023-01-07T08:52:00.372Z,79.64
2023-01-07T08:54:27.294Z,79.32
2023-01-07T08:56:54.079Z,79.18
2023-01-07T08:59:20.817Z,79.05
2023-01-07T09:01:47.692Z,79.25
2023-01-07T09:04:14.514Z,79.21
2023-01-07T09:06:41.224Z,79.31
2023-01-07T09:09:08.000Z,79.62
2023-01-07T09:11:34.940Z,79.53
2023-01-07T09:14:01.726Z,79.06
2023-01-07T09:16:28.598Z,78.83
2023-01-07T09:18:55.343Z,79.74
2023-01-07T09:21:22.171Z,79.40
2023-01-07T09:23:48.992Z,79.64
2023-01-07T09:26:15.695Z,79.57
2023-01-07T09:28:42.449Z,79.27
2023-01-07T09:31:09.225Z,79.46
2023-01-07T09:33:36.072Z,79.70
2023-01-07T09:36:02.899Z,79.83
2023-01-07T09:38:30.033Z,79.04
2023-01-07T09:40:57.146Z,78.43
2023-01-07T09:44:00.890Z,79.05
2023-01-07T09:46:23.543Z,79.43
2023-01-07T09:48:58.022Z,79.45
2023-01-07T09:51:38.475Z,77.69
2023-01-07T09:54:15.929Z,77.96
2023-01-07T09:56:42.966Z,77.66
2023-01-07T09:59:11.691Z,78.23
2023-01-07T10:01:51.190Z,78.07
2023-01-07T10:04:28.586Z,77.52
2023-01-07T10:07:04.102Z,77.87
2023-01-07T10:09:49.357Z,78.03
2023-01-07T10:12:25.792Z,78.22
2023-01-07T10:14:55.412Z,78.08
2023-01-07T10:18:00.951Z,77.98
2023-01-07T10:20:43.956Z,77.56
2023-01-07T10:23:14.789Z,77.84
2023-01-07T10:25:47.881Z,78.08
2023-01-07T10:28:23.057Z,77.93
2023-01-07T10:30:52.237Z,78.20
2023-01-07T10:33:29.767Z,77.46
2023-01-07T10:36:02.347Z,77.69
2023-01-07T10:38:33.987Z,77.62
2023-01-07T10:41:08.705Z,77.46
2023-01-07T10:43:38.073Z,77.30
2023-01-07T10:46:33.966Z,77.33
2023-01-07T10:49:13.750Z,77.11
2023-01-07T10:51:58.003Z,77.55
2023-01-07T10:54:52.263Z,76.93
2023-01-07T10:57:22.872Z,76.95
2023-01-07T10:59:52.488Z,74.68
2023-01-07T11:02:22.557Z,76.26
2023-01-07T11:04:49.814Z,76.07
2023-01-07T11:07:30.982Z,74.55
2023-01-07T11:10:02.302Z,74.51
2023-01-07T11:13:03.127Z,73.73
2023-01-07T11:15:37.659Z,74.73
2023-01-07T11:18:19.350Z,71.78
2023-01-07T11:20:50.894Z,70.90
2023-01-07T11:23:31.557Z,72.46
2023-01-07T11:26:35.905Z,71.64
2023-01-07T11:29:17.048Z,70.22
2023-01-07T11:31:46.566Z,69.15
2023-01-07T11:34:37.959Z,70.95
2023-01-07T11:37:05.915Z,67.08
2023-01-07T11:39:35.704Z,67.42
2023-01-07T11:42:33.002Z,64.70
2023-01-07T11:45:14.908Z,64.81
2023-01-07T11:47:48.627Z,65.79
2023-01-07T11:50:43.341Z,66.20
2023-01-07T11:53:15.854Z,65.96
2023-01-07T11:56:21.861Z,66.79
2023-01-07T11:58:51.151Z,63.76
2023-01-07T12:01:24.262Z,63.97
2023-01-07T12:03:56.798Z,64.53
2023-01-07T12:06:30.402Z,63.39
2023-01-07T12:09:22.802Z,65.50
2023-01-07T12:11:50.817Z,66.53
2023-01-07T12:14:20.368Z,67.85
2023-01-07T12:16:48.089Z,67.14
2023-01-07T12:19:17.762Z,66.67
2023-01-07T12:22:12.513Z,66.94
2023-01-07T12:24:48.196Z,67.71
2023-01-07T12:27:25.974Z,68.43
2023-01-07T12:30:01.408Z,68.68
2023-01-07T12:32:53.302Z,69.27
2023-01-07T12:35:29.483Z,69.10
2023-01-07T12:38:02.980Z,69.74
2023-01-07T12:40:49.865Z,69.69
2023-01-07T12:43:35.391Z,69.66
2023-01-07T12:46:05.584Z,70.80
2023-01-07T12:49:07.989Z,70.39
2023-01-07T12:51:43.868Z,71.03
2023-01-07T12:54:33.472Z,71.37
2023-01-07T12:57:07.161Z,71.64
2023-01-07T12:59:48.088Z,71.65
2023-01-07T13:02:45.100Z,72.39
2023-01-07T13:05:19.319Z,72.33
2023-01-07T13:07:57.175Z,72.95
2023-01-07T13:10:35.599Z,72.88
2023-01-07T13:13:14.077Z,73.28
2023-01-07T13:15:41.981Z,73.21
2023-01-07T13:18:15.956Z,73.31
2023-01-07T13:21:00.943Z,73.71
2023-01-07T13:23:52.928Z,74.43
2023-01-07T13:26:44.249Z,74.97
2023-01-07T13:29:19.986Z,74.42
2023-01-07T13:31:57.767Z,74.05
2023-01-07T13:34:40.180Z,75.41
2023-01-07T13:37:15.682Z,76.20
2023-01-07T13:39:42.391Z,75.49
2023-01-07T13:42:09.107Z,76.49
2023-01-07T13:44:59.874Z,76.34
2023-01-07T13:47:49.299Z,76.10
2023-01-07T13:50:25.673Z,76.39
2023-01-07T13:53:01.410Z,76.09
2023-01-07T13:55:35.910Z,77.02
2023-01-07T13:58:03.014Z,76.75
2023-01-07T14:00:39.773Z,76.92
2023-01-07T14:03:32.333Z,76.43
2023-01-07T14:06:20.576Z,77.16
2023-01-07T14:09:07.868Z,77.13
2023-01-07T14:11:36.098Z,76.78
2023-01-07T14:14:21.960Z,77.14
2023-01-07T14:17:42.991Z,77.65
2023-01-07T14:20:41.947Z,77.49
2023-01-07T14:23:36.923Z,77.26
2023-01-07T14:26:03.725Z,77.28
2023-01-07T14:28:49.058Z,77.70
2023-01-07T14:31:25.353Z,77.93
2023-01-07T14:34:05.045Z,77.60
2023-01-07T14:36:59.408Z,78.01
2023-01-07T14:39:40.940Z,77.68
2023-01-07T14:42:19.729Z,77.62
2023-01-07T14:44:50.952Z,77.87
2023-01-07T14:47:52.272Z,78.10
2023-01-07T14:50:54.656Z,78.49
2023-01-07T14:53:46.037Z,78.21
2023-01-07T14:56:44.414Z,78.19
2023-01-07T14:59:38.478Z,78.42
2023-01-07T15:02:34.708Z,78.36
2023-01-07T15:05:35.660Z,78.88
2023-01-07T15:08:25.791Z,79.03
2023-01-07T15:11:13.603Z,79.07
2023-01-07T15:14:02.724Z,79.82
2023-01-07T15:16:34.342Z,80.10
2023-01-07T15:19:01.419Z,80.09
2023-01-07T15:21:38.160Z,79.50
2023-01-07T15:24:38.698Z,79.37
2023-01-07T15:27:14.960Z,79.58
2023-01-07T15:30:09.353Z,79.25
2023-01-07T15:33:17.621Z,79.29
2023-01-07T15:35:44.998Z,79.45
2023-01-07T15:38:50.244Z,78.93
2023-01-07T15:41:35.923Z,79.63
2023-01-07T15:44:06.341Z,79.64
2023-01-07T15:46:34.009Z,79.37
2023-01-07T15:49:23.874Z,78.95
2023-01-07T15:51:57.018Z,79.17
2023-01-07T15:54:38.206Z,78.82
2023-01-07T15:57:07.208Z,79.56
2023-01-07T15:59:37.865Z,79.17
2023-01-07T16:02:25.541Z,79.56
2023-01-07T16:04:56.068Z,79.88
2023-01-07T16:07:51.096Z,81.05
2023-01-07T16:10:26.169Z,81.61
2023-01-07T16:12:58.504Z,82.04
2023-01-07T16:15:32.784Z,82.30
2023-01-07T16:18:15.723Z,82.79
2023-01-07T16:21:06.293Z,84.10
2023-01-07T16:23:35.942Z,83.90
2023-01-07T16:26:27.485Z,84.13
2023-01-07T16:28:58.358Z,83.60
2023-01-07T16:31:28.002Z,84.81
2023-01-07T16:33:59.069Z,83.71
2023-01-07T16:36:30.207Z,82.75
2023-01-07T16:39:00.782Z,83.08
2023-01-07T16:41:29.914Z,82.31
2023-01-07T16:43:58.830Z,82.25
2023-01-07T16:46:42.876Z,82.73
2023-01-07T16:49:17.618Z,82.70
2023-01-07T16:51:54.225Z,83.25
2023-01-07T16:54:24.622Z,83.51
2023-01-07T16:57:02.140Z,83.03
2023-01-07T16:59:34.990Z,83.27
2023-01-07T17:02:48.990Z,83.59
2023-01-07T17:05:33.770Z,83.14
2023-01-07T17:08:07.028Z,84.56
2023-01-07T17:10:40.801Z,85.36
2023-01-07T17:13:27.600Z,86.38
2023-01-07T17:16:16.406Z,85.93
2023-01-07T17:18:43.332Z,85.61
2023-01-07T17:21:32.562Z,85.66
2023-01-07T17:23:59.519Z,84.90
2023-01-07T17:26:28.176Z,85.28
2023-01-07T17:29:09.691Z,84.90
2023-01-07T17:31:40.721Z,85.05
2023-01-07T17:34:10.530Z,84.26
2023-01-07T17:36:37.344Z,84.51
2023-01-07T17:39:05.023Z,84.50
2023-01-07T17:41:53.496Z,83.85
2023-01-07T17:44:20.362Z,84.16
2023-01-07T17:46:47.200Z,84.65
2023-01-07T17:49:14.259Z,84.46
2023-01-07T17:51:44.357Z,84.55
2023-01-07T17:54:30.398Z,84.86
2023-01-07T17:56:57.236Z,85.29
2023-01-07T17:59:24.519Z,84.73
2023-01-07T18:01:56.694Z,85.03
2023-01-07T18:04:23.929Z,85.23
2023-01-07T18:06:50.882Z,85.17
2023-01-07T18:09:17.837Z,85.79
2023-01-07T18:12:04.587Z,87.46
2023-01-07T18:14:32.673Z,87.53
2023-01-07T18:16:59.674Z,88.55
2023-01-07T18:19:26.515Z,88.45
2023-01-07T18:21:53.400Z,88.47
2023-01-07T18:24:21.643Z,88.31
2023-01-07T18:26:48.967Z,88.09
2023-01-07T18:29:15.982Z,88.49
2023-01-07T18:31:44.579Z,87.60
2023-01-07T18:34:13.779Z,87.30
2023-01-07T18:36:41.331Z,87.50
2023-01-07T18:39:10.038Z,87.45
2023-01-07T18:41:39.432Z,88.31
2023-01-07T18:44:07.282Z,88.28
2023-01-07T18:46:34.298Z,88.25
2023-01-07T18:49:01.142Z,88.80
2023-01-07T18:51:28.379Z,88.15
2023-01-07T18:53:55.519Z,87.95
2023-01-07T18:56:22.794Z,88.51
2023-01-07T18:58:53.754Z,88.43
2023-01-07T19:01:21.193Z,87.66
2023-01-07T19:03:48.932Z,88.15
2023-01-07T19:06:16.076Z,88.06
2023-01-07T19:08:43.444Z,88.12
2023-01-07T19:11:15.579Z,87.98
2023-01-07T19:13:42.886Z,87.86
2023-01-07T19:16:12.855Z,87.75
2023-01-07T19:18:41.237Z,87.91
2023-01-07T19:21:11.713Z,88.39
2023-01-07T19:23:39.417Z,87.90
2023-01-07T19:26:08.454Z,88.18
2023-01-07T19:28:36.121Z,88.32
2023-01-07T19:31:10.784Z,88.09
2023-01-07T19:33:37.890Z,88.40
2023-01-07T19:36:08.198Z,88.38
2023-01-07T19:38:42.933Z,88.34
2023-01-07T19:41:12.046Z,88.33
2023-01-07T19:43:39.197Z,88.20
2023-01-07T19:46:07.450Z,87.77
2023-01-07T19:48:34.443Z,88.04
2023-01-07T19:51:03.255Z,88.14
2023-01-07T19:53:31.525Z,88.24
2023-01-07T19:56:09.919Z,88.67
2023-01-07T19:58:37.573Z,88.28
2023-01-07T20:01:07.257Z,88.45
2023-01-07T20:03:35.536Z,88.05
2023-01-07T20:06:10.583Z,88.50
2023-01-07T20:08:38.250Z,88.29
2023-01-07T20:11:05.960Z,88.14
2023-01-07T20:13:34.638Z,88.33
2023-01-07T20:16:09.864Z,87.70
2023-01-07T20:18:44.130Z,88.33
2023-01-07T20:21:13.548Z,88.83
2023-01-07T20:23:41.662Z,88.77
2023-01-07T20:26:14.555Z,89.50
2023-01-07T20:28:41.775Z,90.19
2023-01-07T20:31:11.550Z,90.95
2023-01-07T20:33:38.410Z,91.03
2023-01-07T20:36:08.274Z,91.40
2023-01-07T20:38:36.044Z,91.78
2023-01-07T20:41:06.126Z,92.10
2023-01-07T20:43:34.289Z,93.41
2023-01-07T20:46:05.847Z,94.60
2023-01-07T20:48:33.793Z,94.29
2023-01-07T20:51:06.565Z,95.14
2023-01-07T20:53:34.326Z,95.15
2023-01-07T20:56:02.179Z,95.79
2023-01-07T20:58:34.135Z,96.07
2023-01-07T21:01:12.777Z,96.17
2023-01-07T21:03:40.609Z,96.47
2023-01-07T21:06:10.036Z,97.18
2023-01-07T21:08:38.433Z,96.56
2023-01-07T21:11:13.524Z,95.92
2023-01-07T21:13:40.968Z,96.12
2023-01-07T21:16:07.868Z,96.45
2023-01-07T21:18:35.055Z,96.48
2023-01-07T21:21:08.756Z,96.73
2023-01-07T21:23:35.585Z,97.30
2023-01-07T21:26:02.330Z,97.49
2023-01-07T21:28:29.033Z,97.27
2023-01-07T21:30:55.857Z,97.34
2023-01-07T21:33:22.638Z,97.28
2023-01-07T21:35:49.400Z,97.38
2023-01-07T21:38:16.242Z,97.58
2023-01-07T21:40:43.166Z,97.22
2023-01-07T21:43:09.970Z,96.70
2023-01-07T21:45:37.015Z,97.21
2023-01-07T21:48:04.067Z,97.05
2023-01-07T21:50:30.779Z,96.74
2023-01-07T21:52:57.696Z,96.33
2023-01-07T21:55:24.592Z,95.68
2023-01-07T21:57:51.316Z,95.22
2023-01-07T22:00:18.153Z,94.96
2023-01-07T22:02:45.066Z,94.55
2023-01-07T22:05:12.117Z,94.58
2023-01-07T22:07:39.621Z,94.44
2023-01-07T22:10:06.728Z,94.31
2023-01-07T22:12:33.470Z,93.86
2023-01-07T22:15:00.824Z,93.80
2023-01-07T22:17:27.705Z,93.77
2023-01-07T22:19:54.531Z,93.85
2023-01-07T22:22:21.307Z,93.70
2023-01-07T22:24:48.165Z,93.40
2023-01-07T22:27:14.905Z,93.42
2023-01-07T22:29:42.097Z,93.21
2023-01-07T22:32:09.010Z,93.53
2023-01-07T22:34:36.000Z,93.52
2023-01-07T22:37:10.547Z,93.29
2023-01-07T22:39:39.887Z,93.83
2023-01-07T22:42:19.994Z,94.00
2023-01-07T22:44:56.239Z,94.38
2023-01-07T22:47:27.735Z,94.61
2023-01-07T22:49:58.322Z,94.38
2023-01-07T22:52:25.451Z,94.53
2023-01-07T22:54:53.169Z,94.84
2023-01-07T22:57:23.270Z,94.52
2023-01-07T22:59:50.079Z,94.24
2023-01-07T23:02:16.789Z,94.18
2023-01-07T23:04:43.535Z,94.16
2023-01-07T23:07:10.253Z,94.66
2023-01-07T23:09:37.042Z,94.62
2023-01-07T23:12:04.065Z,94.53
2023-01-07T23:14:30.975Z,94.45
2023-01-07T23:16:59.501Z,94.12
2023-01-07T23:19:26.348Z,94.02
2023-01-07T23:21:55.103Z,93.90
2023-01-07T23:24:23.287Z,93.44
2023-01-07T23:26:51.981Z,93.73
2023-01-07T23:29:19.409Z,93.70
2023-01-07T23:31:46.591Z,93.26
2023-01-07T23:34:14.419Z,93.18
2023-01-07T23:36:41.258Z,92.92
2023-01-07T23:39:08.011Z,93.04
2023-01-07T23:41:34.917Z,92.91
2023-01-07T23:44:01.844Z,93.03
2023-01-07T23:46:28.621Z,93.14
2023-01-07T23:48:55.330Z,93.08
2023-01-07T23:51:22.400Z,93.15
2023-01-07T23:53:49.826Z,93.05
2023-01-07T23:56:20.952Z,93.23
2023-01-07T23:58:48.238Z,92.67
